createdAt,value
2022-09-11T00:01:07.684Z,97.87
2022-09-11T00:03:37.380Z,89.33
2022-09-11T00:06:06.499Z,100.27
2022-09-11T00:08:34.426Z,96.40
2022-09-11T00:11:05.933Z,77.47
2022-09-11T00:13:33.578Z,73.67
2022-09-11T00:16:01.630Z,67.20
2022-09-11T00:18:29.370Z,46.33
2022-09-11T00:20:59.571Z,66.40
2022-09-11T00:23:28.238Z,50.10
2022-09-11T00:25:55.807Z,42.80
2022-09-11T00:28:24.594Z,41.47
2022-09-11T00:30:58.194Z,46.57
2022-09-11T00:33:27.796Z,50.70
2022-09-11T00:35:58.409Z,40.70
2022-09-11T00:38:28.378Z,40.90
2022-09-11T00:40:56.481Z,41.47
2022-09-11T00:43:23.998Z,35.83
2022-09-11T00:45:54.636Z,36.63
2022-09-11T00:48:24.701Z,37.53
2022-09-11T00:50:54.459Z,41.27
2022-09-11T00:53:24.455Z,43.60
2022-09-11T00:55:58.127Z,61.43
2022-09-11T00:58:27.864Z,55.20
2022-09-11T01:00:56.091Z,76.13
2022-09-11T01:03:24.148Z,88.23
2022-09-11T01:05:52.415Z,95.80
2022-09-11T01:08:20.836Z,95.23
2022-09-11T01:10:56.239Z,86.30
2022-09-11T01:13:28.591Z,93.20
2022-09-11T01:16:03.735Z,80.23
2022-09-11T01:18:33.058Z,82.30
2022-09-11T01:21:12.528Z,66.60
2022-09-11T01:23:56.156Z,64.20
2022-09-11T01:26:32.713Z,64.87
2022-09-11T01:29:03.009Z,55.70
2022-09-11T01:31:36.170Z,49.90
2022-09-11T01:34:06.629Z,42.20
2022-09-11T01:36:36.722Z,35.40
2022-09-11T01:39:05.273Z,40.30
2022-09-11T01:41:36.130Z,31.90
2022-09-11T01:44:07.140Z,27.23
2022-09-11T01:46:40.871Z,27.90
2022-09-11T01:49:10.709Z,23.13
2022-09-11T01:51:40.941Z,25.67
2022-09-11T01:54:11.320Z,28.00
2022-09-11T01:56:41.587Z,26.43
2022-09-11T01:59:13.201Z,22.43
2022-09-11T02:01:42.659Z,26.03
2022-09-11T02:04:11.522Z,28.30
2022-09-11T02:06:42.332Z,21.00
2022-09-11T02:09:11.050Z,26.13
2022-09-11T02:11:41.183Z,23.90
2022-09-11T02:14:12.528Z,23.70
2022-09-11T02:16:46.021Z,26.27
2022-09-11T02:19:15.614Z,26.43
2022-09-11T02:21:43.499Z,24.23
2022-09-11T02:24:11.637Z,22.77
2022-09-11T02:26:42.702Z,22.40
2022-09-11T02:29:11.442Z,27.43
2022-09-11T02:31:39.894Z,22.50
2022-09-11T02:34:10.228Z,22.23
2022-09-11T02:36:45.027Z,23.07
2022-09-11T02:39:25.112Z,23.13
2022-09-11T02:41:59.559Z,36.53
2022-09-11T02:44:33.911Z,28.40
2022-09-11T02:47:07.010Z,27.33
2022-09-11T02:49:43.967Z,23.80
2022-09-11T02:52:14.706Z,24.00
2022-09-11T02:54:49.345Z,25.53
2022-09-11T02:57:19.835Z,25.03
2022-09-11T02:59:52.969Z,25.47
2022-09-11T03:02:21.372Z,28.20
2022-09-11T03:04:52.264Z,26.80
2022-09-11T03:07:20.824Z,29.20
2022-09-11T03:09:49.414Z,22.80
2022-09-11T03:12:21.159Z,25.23
2022-09-11T03:14:50.908Z,30.90
2022-09-11T03:17:19.934Z,25.63
2022-09-11T03:19:48.235Z,25.60
2022-09-11T03:22:18.482Z,27.00
2022-09-11T03:24:46.144Z,29.07
2022-09-11T03:27:14.132Z,25.50
2022-09-11T03:29:42.583Z,29.30
2022-09-11T03:32:11.401Z,22.40
2022-09-11T03:34:39.426Z,28.57
2022-09-11T03:37:08.382Z,28.27
2022-09-11T03:39:37.614Z,23.77
2022-09-11T03:42:05.851Z,26.60
2022-09-11T03:44:33.371Z,26.10
2022-09-11T03:47:00.836Z,24.37
2022-09-11T03:49:29.015Z,25.77
2022-09-11T03:51:56.994Z,25.07
2022-09-11T03:54:24.912Z,25.70
2022-09-11T03:56:54.152Z,25.07
2022-09-11T03:59:22.384Z,25.70
2022-09-11T04:01:51.096Z,27.50
2022-09-11T04:04:18.850Z,31.97
2022-09-11T04:06:46.933Z,27.77
2022-09-11T04:09:15.610Z,26.03
2022-09-11T04:11:43.241Z,28.87
2022-09-11T04:14:26.464Z,30.20
2022-09-11T04:16:57.164Z,29.17
2022-09-11T04:19:25.353Z,27.67
2022-09-11T04:21:54.409Z,29.70
2022-09-11T04:24:22.563Z,29.10
2022-09-11T04:26:50.381Z,28.87
2022-09-11T04:29:29.121Z,29.30
2022-09-11T04:31:57.767Z,32.13
2022-09-11T04:34:29.536Z,30.07
2022-09-11T04:36:57.262Z,31.13
2022-09-11T04:39:26.251Z,29.80
2022-09-11T04:41:54.680Z,36.30
2022-09-11T04:44:22.157Z,34.63
2022-09-11T04:46:51.275Z,42.03
2022-09-11T04:49:19.982Z,34.67
2022-09-11T04:51:48.763Z,36.03
2022-09-11T04:54:21.274Z,38.03
2022-09-11T04:56:49.524Z,39.37
2022-09-11T04:59:19.490Z,35.97
2022-09-11T05:02:18.118Z,39.67
2022-09-11T05:04:49.203Z,36.10
2022-09-11T05:07:18.015Z,36.80
2022-09-11T05:09:48.977Z,34.33
2022-09-11T05:12:18.809Z,38.30
2022-09-11T05:14:47.010Z,38.07
2022-09-11T05:17:14.558Z,40.07
2022-09-11T05:19:45.300Z,40.50
2022-09-11T05:22:12.919Z,45.50
2022-09-11T05:24:46.326Z,59.63
2022-09-11T05:27:14.145Z,46.00
2022-09-11T05:29:41.914Z,51.83
2022-09-11T05:32:13.645Z,53.00
2022-09-11T05:34:42.502Z,49.83
2022-09-11T05:37:13.832Z,48.50
2022-09-11T05:39:45.309Z,46.67
2022-09-11T05:42:15.562Z,43.20
2022-09-11T05:44:48.597Z,40.20
2022-09-11T05:47:17.141Z,49.57
2022-09-11T05:49:48.075Z,45.40
2022-09-11T05:52:17.145Z,40.60
2022-09-11T05:54:44.794Z,44.53
2022-09-11T05:57:14.604Z,46.83
2022-09-11T05:59:42.339Z,40.27
2022-09-11T06:02:11.612Z,43.97
2022-09-11T06:04:53.086Z,41.53
2022-09-11T06:07:23.565Z,44.53
2022-09-11T06:09:52.699Z,46.13
2022-09-11T06:12:21.165Z,49.07
2022-09-11T06:14:49.974Z,46.20
2022-09-11T06:17:17.590Z,49.17
2022-09-11T06:19:46.008Z,45.27
2022-09-11T06:22:13.641Z,47.43
2022-09-11T06:24:45.596Z,45.67
2022-09-11T06:27:13.149Z,42.07
2022-09-11T06:29:45.266Z,41.43
2022-09-11T06:32:13.505Z,39.57
2022-09-11T06:34:42.186Z,43.17
2022-09-11T06:37:12.995Z,38.30
2022-09-11T06:39:41.476Z,40.00
2022-09-11T06:42:12.656Z,41.00
2022-09-11T06:44:42.142Z,39.73
2022-09-11T06:47:13.380Z,39.90
2022-09-11T06:49:40.926Z,35.70
2022-09-11T06:52:30.180Z,38.00
2022-09-11T06:55:07.610Z,41.37
2022-09-11T06:57:41.817Z,47.93
2022-09-11T07:00:15.548Z,43.90
2022-09-11T07:02:43.443Z,37.43
2022-09-11T07:05:13.233Z,34.40
2022-09-11T07:07:41.246Z,35.10
2022-09-11T07:10:11.109Z,34.70
2022-09-11T07:12:41.725Z,32.80
2022-09-11T07:15:10.271Z,34.80
2022-09-11T07:17:37.979Z,33.70
2022-09-11T07:20:08.789Z,36.93
2022-09-11T07:22:37.277Z,28.03
2022-09-11T07:25:07.779Z,36.37
2022-09-11T07:27:40.169Z,32.20
2022-09-11T07:30:08.498Z,28.93
2022-09-11T07:32:39.538Z,33.93
2022-09-11T07:37:59.232Z,28.30
2022-09-11T07:40:28.963Z,27.53
2022-09-11T07:43:00.602Z,30.97
2022-09-11T07:45:29.323Z,29.20
2022-09-11T07:47:58.222Z,30.27
2022-09-11T07:50:26.412Z,26.20
2022-09-11T07:52:55.824Z,26.57
2022-09-11T07:55:23.605Z,26.03
2022-09-11T07:57:54.051Z,34.23
2022-09-11T08:00:24.639Z,22.20
2022-09-11T08:03:04.168Z,24.87
2022-09-11T08:05:35.307Z,24.77
2022-09-11T08:08:03.741Z,23.17
2022-09-11T08:10:32.109Z,27.00
2022-09-11T08:13:00.878Z,26.10
2022-09-11T08:15:35.450Z,23.80
2022-09-11T08:18:05.108Z,31.60
2022-09-11T08:20:33.497Z,26.93
2022-09-11T08:23:01.757Z,23.73
2022-09-11T08:25:29.792Z,25.30
2022-09-11T08:27:59.182Z,22.40
2022-09-11T08:30:28.011Z,24.50
2022-09-11T08:32:56.957Z,33.93
2022-09-11T08:35:25.759Z,27.20
2022-09-11T08:37:55.133Z,23.77
2022-09-11T08:40:23.482Z,28.70
2022-09-11T08:42:52.946Z,23.53
2022-09-11T08:45:22.445Z,23.03
2022-09-11T08:47:52.457Z,25.97
2022-09-11T08:50:25.385Z,25.10
2022-09-11T08:52:54.751Z,21.40
2022-09-11T08:55:29.546Z,22.40
2022-09-11T08:58:02.363Z,24.43
2022-09-11T09:00:33.935Z,21.13
2022-09-11T09:03:14.872Z,26.50
2022-09-11T09:05:46.484Z,21.97
2022-09-11T09:08:21.653Z,23.67
2022-09-11T09:10:52.744Z,20.87
2022-09-11T09:13:41.784Z,23.63
2022-09-11T09:16:15.632Z,19.20
2022-09-11T09:18:45.923Z,17.40
2022-09-11T09:21:17.254Z,19.20
2022-09-11T09:23:47.538Z,19.23
2022-09-11T09:26:18.987Z,20.93
2022-09-11T09:28:50.553Z,17.97
2022-09-11T09:31:20.881Z,18.20
2022-09-11T09:33:52.368Z,22.10
2022-09-11T09:36:23.159Z,19.13
2022-09-11T09:38:52.675Z,19.00
2022-09-11T09:41:34.309Z,17.97
2022-09-11T09:44:04.926Z,17.83
2022-09-11T09:46:37.986Z,19.13
2022-09-11T09:49:06.606Z,17.47
2022-09-11T09:51:36.311Z,21.13
2022-09-11T09:54:04.429Z,23.33
2022-09-11T09:56:32.675Z,21.10
2022-09-11T09:59:02.463Z,22.33
2022-09-11T10:01:46.849Z,22.23
2022-09-11T10:04:16.229Z,23.53
2022-09-11T10:06:45.941Z,23.10
2022-09-11T10:09:20.372Z,27.70
2022-09-11T10:11:51.974Z,20.87
2022-09-11T10:14:49.379Z,25.00
2022-09-11T10:17:20.311Z,20.80
2022-09-11T10:19:48.356Z,56.47
2022-09-11T10:22:23.495Z,24.37
2022-09-11T10:24:53.695Z,45.13
2022-09-11T10:27:22.999Z,32.43
2022-09-11T10:29:54.573Z,135.17
2022-09-11T10:32:24.526Z,325.53
2022-09-11T10:34:53.079Z,190.87
2022-09-11T10:37:24.890Z,183.07
2022-09-11T10:39:54.012Z,247.53
2022-09-11T10:42:23.338Z,259.77
2022-09-11T10:44:51.888Z,289.83
2022-09-11T10:47:23.324Z,125.97
2022-09-11T10:49:51.182Z,147.73
2022-09-11T10:52:22.133Z,70.53
2022-09-11T10:54:58.849Z,175.87
2022-09-11T10:57:29.271Z,70.93
2022-09-11T11:00:02.635Z,48.33
2022-09-11T11:02:31.759Z,44.80
2022-09-11T11:05:02.618Z,24.73
2022-09-11T11:07:40.270Z,27.80
2022-09-11T11:10:18.010Z,22.00
2022-09-11T11:12:50.451Z,21.93
2022-09-11T11:15:30.197Z,24.70
2022-09-11T11:18:07.315Z,21.83
2022-09-11T11:20:41.031Z,18.77
2022-09-11T11:23:26.425Z,19.60
2022-09-11T11:26:00.941Z,19.93
2022-09-11T11:28:36.440Z,18.23
2022-09-11T11:31:09.492Z,17.77
2022-09-11T11:33:43.831Z,16.90
2022-09-11T11:36:14.383Z,20.77
2022-09-11T11:38:44.545Z,18.23
2022-09-11T11:41:16.349Z,17.50
2022-09-11T11:43:44.843Z,14.67
2022-09-11T11:46:15.806Z,15.10
2022-09-11T11:48:47.374Z,16.83
2022-09-11T11:51:17.777Z,17.07
2022-09-11T11:54:07.955Z,16.97
2022-09-11T11:56:41.191Z,15.43
2022-09-11T11:59:14.001Z,14.70
2022-09-11T12:01:44.498Z,12.40
2022-09-11T12:04:17.384Z,11.83
2022-09-11T12:06:45.079Z,15.00
2022-09-11T12:09:16.509Z,11.70
2022-09-11T12:14:34.030Z,12.47
2022-09-11T12:17:17.997Z,11.90
2022-09-11T12:20:02.223Z,12.40
2022-09-11T12:22:37.145Z,9.80
2022-09-11T12:25:04.894Z,9.97
2022-09-11T12:27:50.957Z,9.10
2022-09-11T12:30:23.428Z,10.77
2022-09-11T12:32:52.420Z,12.53
2022-09-11T12:35:22.229Z,11.37
2022-09-11T12:37:54.225Z,11.90
2022-09-11T12:40:24.988Z,15.37
2022-09-11T12:43:09.134Z,13.70
2022-09-11T12:45:38.356Z,15.00
2022-09-11T12:48:07.587Z,13.03
2022-09-11T12:50:35.846Z,12.60
2022-09-11T12:53:04.130Z,13.03
2022-09-11T12:55:37.415Z,60.77
2022-09-11T12:58:07.818Z,235.10
2022-09-11T13:00:38.449Z,194.57
2022-09-11T13:03:07.260Z,168.90
2022-09-11T13:05:37.839Z,49.53
2022-09-11T13:08:07.184Z,56.97
2022-09-11T13:10:36.564Z,33.23
2022-09-11T13:13:28.786Z,96.07
2022-09-11T13:15:58.610Z,29.67
2022-09-11T13:18:31.039Z,23.97
2022-09-11T13:21:04.608Z,18.30
2022-09-11T13:23:32.735Z,12.73
2022-09-11T13:26:01.001Z,13.37
2022-09-11T13:28:31.570Z,10.30
2022-09-11T13:31:05.124Z,10.53
2022-09-11T13:33:33.754Z,12.57
2022-09-11T13:36:03.470Z,13.90
2022-09-11T13:38:57.547Z,9.67
2022-09-11T13:41:28.073Z,10.83
2022-09-11T13:43:58.460Z,11.30
2022-09-11T13:46:28.238Z,14.00
2022-09-11T13:48:58.873Z,10.33
2022-09-11T13:51:29.512Z,11.10
2022-09-11T13:53:59.484Z,10.50
2022-09-11T13:56:38.848Z,8.93
2022-09-11T13:59:21.511Z,10.30
2022-09-11T14:01:55.447Z,11.60
2022-09-11T14:04:23.347Z,8.70
2022-09-11T14:06:50.894Z,10.07
2022-09-11T14:09:20.037Z,9.07
2022-09-11T14:11:47.984Z,8.33
2022-09-11T14:14:20.998Z,9.37
2022-09-11T14:16:51.110Z,9.00
2022-09-11T14:19:21.568Z,8.20
2022-09-11T14:21:50.425Z,7.50
2022-09-11T14:24:26.650Z,9.53
2022-09-11T14:26:58.170Z,7.10
2022-09-11T14:29:28.204Z,7.83
2022-09-11T14:31:56.469Z,6.10
2022-09-11T14:34:26.705Z,7.63
2022-09-11T14:36:56.294Z,6.87
2022-09-11T14:39:29.290Z,10.17
2022-09-11T14:41:58.159Z,7.60
2022-09-11T14:44:27.117Z,7.90
2022-09-11T14:46:55.015Z,7.83
2022-09-11T14:49:23.143Z,7.83
2022-09-11T14:51:55.398Z,7.57
2022-09-11T14:54:24.002Z,11.63
2022-09-11T14:56:52.481Z,10.00
2022-09-11T14:59:20.243Z,14.90
2022-09-11T15:01:48.305Z,37.97
2022-09-11T15:04:18.529Z,78.10
2022-09-11T15:06:46.130Z,135.63
2022-09-11T15:09:15.100Z,140.60
2022-09-11T15:11:43.828Z,128.07
2022-09-11T15:14:27.527Z,44.87
2022-09-11T15:17:03.747Z,123.87
2022-09-11T15:19:31.530Z,38.87
2022-09-11T15:21:59.287Z,52.93
2022-09-11T15:24:28.418Z,19.90
2022-09-11T15:26:56.020Z,16.07
2022-09-11T15:29:29.398Z,12.50
2022-09-11T15:32:01.117Z,12.37
2022-09-11T15:34:31.595Z,10.53
2022-09-11T15:37:00.408Z,10.57
2022-09-11T15:39:29.262Z,11.47
2022-09-11T15:41:57.248Z,10.40
2022-09-11T15:44:25.923Z,8.50
2022-09-11T15:46:54.718Z,10.80
2022-09-11T15:49:23.182Z,11.40
2022-09-11T15:51:54.279Z,9.63
2022-09-11T15:54:23.133Z,8.53
2022-09-11T15:56:52.849Z,8.47
2022-09-11T15:59:20.794Z,7.60
2022-09-11T16:01:48.309Z,7.47
2022-09-11T16:04:19.205Z,8.90
2022-09-11T16:06:48.358Z,7.73
2022-09-11T16:09:16.997Z,17.63
2022-09-11T16:11:45.517Z,6.50
2022-09-11T16:14:17.563Z,9.77
2022-09-11T16:16:46.915Z,7.93
2022-09-11T16:19:14.850Z,8.23
2022-09-11T16:21:43.080Z,7.50
2022-09-11T16:24:11.551Z,7.00
2022-09-11T16:26:39.724Z,7.13
2022-09-11T16:29:08.215Z,8.80
2022-09-11T16:31:37.254Z,6.80
2022-09-11T16:34:05.835Z,7.77
2022-09-11T16:36:38.354Z,7.97
2022-09-11T16:39:06.571Z,7.60
2022-09-11T16:41:34.242Z,8.10
2022-09-11T16:44:02.949Z,8.53
2022-09-11T16:46:30.906Z,9.07
2022-09-11T16:49:01.962Z,6.40
2022-09-11T16:51:30.429Z,9.20
2022-09-11T16:53:58.075Z,12.10
2022-09-11T16:56:48.597Z,8.80
2022-09-11T16:59:16.646Z,10.07
2022-09-11T17:01:45.089Z,11.60
2022-09-11T17:04:14.244Z,13.10
2022-09-11T17:06:41.715Z,16.10
2022-09-11T17:09:09.259Z,12.50
2022-09-11T17:11:37.359Z,12.40
2022-09-11T17:14:05.469Z,21.10
2022-09-11T17:16:35.547Z,13.30
2022-09-11T17:19:03.283Z,18.23
2022-09-11T17:21:35.781Z,17.87
2022-09-11T17:24:05.146Z,13.47
2022-09-11T17:26:33.408Z,17.90
2022-09-11T17:29:02.368Z,18.13
2022-09-11T17:31:30.705Z,16.97
2022-09-11T17:33:58.339Z,19.40
2022-09-11T17:36:26.140Z,16.87
2022-09-11T17:38:55.814Z,15.53
2022-09-11T17:41:23.654Z,15.50
2022-09-11T17:43:51.506Z,12.00
2022-09-11T17:46:21.102Z,12.80
2022-09-11T17:48:49.252Z,13.80
2022-09-11T17:51:19.934Z,11.47
2022-09-11T17:53:48.534Z,12.53
2022-09-11T17:56:19.079Z,11.10
2022-09-11T17:58:50.261Z,14.07
2022-09-11T18:01:17.962Z,12.77
2022-09-11T18:03:50.550Z,11.40
2022-09-11T18:06:19.643Z,12.70
2022-09-11T18:08:47.751Z,17.47
2022-09-11T18:11:16.914Z,16.37
2022-09-11T18:13:44.845Z,17.30
2022-09-11T18:16:12.617Z,13.07
2022-09-11T18:18:40.400Z,11.80
2022-09-11T18:21:08.915Z,14.30
2022-09-11T18:23:39.652Z,13.10
2022-09-11T18:26:09.692Z,16.20
2022-09-11T18:28:40.792Z,19.67
2022-09-11T18:31:09.254Z,15.20
2022-09-11T18:33:37.663Z,13.53
2022-09-11T18:38:56.855Z,15.63
2022-09-11T18:41:25.201Z,15.33
2022-09-11T18:43:57.260Z,17.07
2022-09-11T18:46:25.432Z,29.90
2022-09-11T18:48:52.958Z,22.47
2022-09-11T18:51:20.808Z,19.27
2022-09-11T18:53:48.656Z,17.23
2022-09-11T18:56:16.774Z,17.53
2022-09-11T18:58:45.397Z,15.93
2022-09-11T19:01:16.663Z,16.37
2022-09-11T19:03:44.522Z,18.23
2022-09-11T19:06:12.866Z,22.80
2022-09-11T19:08:42.453Z,26.97
2022-09-11T19:11:11.570Z,22.13
2022-09-11T19:13:39.884Z,22.80
2022-09-11T19:16:08.101Z,48.33
2022-09-11T19:18:38.630Z,30.10
2022-09-11T19:21:10.201Z,27.70
2022-09-11T19:23:39.927Z,25.43
2022-09-11T19:26:08.727Z,26.50
2022-09-11T19:28:36.838Z,22.50
2022-09-11T19:31:05.158Z,24.10
2022-09-11T19:33:34.085Z,22.50
2022-09-11T19:36:04.410Z,20.53
2022-09-11T19:38:33.512Z,23.00
2022-09-11T19:41:01.837Z,23.53
2022-09-11T19:43:31.050Z,20.30
2022-09-11T19:46:02.120Z,19.80
2022-09-11T19:48:29.993Z,20.70
2022-09-11T19:50:57.835Z,21.17
2022-09-11T19:53:28.027Z,21.30
2022-09-11T19:55:56.122Z,19.87
2022-09-11T19:58:24.360Z,22.50
2022-09-11T20:00:51.961Z,21.97
2022-09-11T20:03:19.901Z,19.87
2022-09-11T20:05:48.692Z,18.90
2022-09-11T20:08:17.222Z,20.00
2022-09-11T20:10:48.580Z,22.93
2022-09-11T20:13:16.203Z,22.97
2022-09-11T20:15:43.720Z,19.20
2022-09-11T20:18:11.393Z,22.63
2022-09-11T20:20:44.819Z,28.67
2022-09-11T20:23:13.358Z,25.60
2022-09-11T20:25:41.438Z,20.53
2022-09-11T20:28:10.560Z,23.77
2022-09-11T20:30:40.229Z,21.90
2022-09-11T20:33:11.804Z,23.53
2022-09-11T20:35:40.899Z,25.20
2022-09-11T20:38:08.415Z,26.47
2022-09-11T20:40:37.972Z,23.17
2022-09-11T20:43:05.735Z,49.30
2022-09-11T20:45:35.664Z,110.27
2022-09-11T20:48:03.605Z,51.00
2022-09-11T20:50:31.272Z,44.73
2022-09-11T20:53:00.401Z,26.43
2022-09-11T20:55:28.304Z,17.70
2022-09-11T20:57:56.448Z,51.07
2022-09-11T21:00:24.229Z,103.10
2022-09-11T21:02:53.177Z,45.30
2022-09-11T21:05:20.756Z,65.83
2022-09-11T21:07:48.446Z,23.10
2022-09-11T21:10:16.234Z,30.40
2022-09-11T21:12:44.188Z,21.57
2022-09-11T21:15:11.787Z,17.70
2022-09-11T21:17:39.503Z,17.73
2022-09-11T21:20:09.465Z,17.50
2022-09-11T21:22:37.906Z,16.10
2022-09-11T21:25:05.813Z,15.10
2022-09-11T21:27:33.498Z,14.77
2022-09-11T21:30:01.004Z,14.97
2022-09-11T21:32:28.823Z,13.40
2022-09-11T21:34:56.638Z,17.20
2022-09-11T21:37:25.636Z,17.27
2022-09-11T21:39:53.185Z,15.97
2022-09-11T21:42:21.027Z,13.83
2022-09-11T21:44:48.588Z,20.60
2022-09-11T21:47:18.637Z,15.40
2022-09-11T21:49:46.530Z,13.47
2022-09-11T21:52:14.026Z,18.80
2022-09-11T21:54:42.911Z,15.87
2022-09-11T21:57:10.536Z,17.70
2022-09-11T21:59:38.071Z,16.83
2022-09-11T22:02:08.005Z,16.60
2022-09-11T22:04:35.692Z,13.10
2022-09-11T22:07:03.192Z,12.20
2022-09-11T22:09:30.880Z,16.10
2022-09-11T22:12:00.126Z,13.20
2022-09-11T22:14:27.767Z,23.03
2022-09-11T22:16:55.315Z,17.97
2022-09-11T22:19:23.439Z,31.07
2022-09-11T22:21:51.050Z,11.93
2022-09-11T22:24:19.592Z,13.10
2022-09-11T22:26:47.131Z,12.73
2022-09-11T22:29:15.998Z,22.00
2022-09-11T22:31:43.506Z,11.77
2022-09-11T22:34:11.519Z,12.20
2022-09-11T22:36:39.158Z,10.47
2022-09-11T22:39:07.956Z,7.87
2022-09-11T22:41:35.721Z,9.13
2022-09-11T22:44:04.244Z,13.63
2022-09-11T22:46:33.243Z,10.93
2022-09-11T22:49:03.267Z,11.30
2022-09-11T22:51:31.869Z,8.50
2022-09-11T22:53:59.353Z,11.00
2022-09-11T22:56:27.190Z,8.73
2022-09-11T22:58:54.689Z,9.23
2022-09-11T23:01:22.723Z,6.93
2022-09-11T23:03:52.677Z,8.00
2022-09-11T23:06:38.012Z,9.90
2022-09-11T23:09:06.723Z,10.83
2022-09-11T23:11:34.487Z,7.50
2022-09-11T23:14:02.302Z,7.00
2022-09-11T23:16:30.369Z,6.30
2022-09-11T23:19:00.361Z,9.83
2022-09-11T23:21:28.463Z,9.03
2022-09-11T23:23:57.275Z,8.43
2022-09-11T23:26:25.752Z,8.13
2022-09-11T23:28:53.339Z,12.23
2022-09-11T23:31:24.755Z,16.30
2022-09-11T23:33:53.560Z,7.53
2022-09-11T23:36:22.467Z,8.00
2022-09-11T23:38:51.250Z,8.90
2022-09-11T23:41:19.152Z,10.00
2022-09-11T23:43:47.302Z,7.30
2022-09-11T23:46:15.214Z,8.00
2022-09-11T23:48:43.130Z,6.60
2022-09-11T23:51:11.171Z,7.90
2022-09-11T23:53:43.497Z,7.93
2022-09-11T23:56:11.765Z,9.10
2022-09-11T23:58:40.285Z,8.27
